Time;durP1;ratioP1;P1;durP2;ratioP2;P2;SDS_P1;SDS_P2;PMS_P1;PMS_P2;Temp;Humidity;BMP_temperature;BMP_pressure;BME280_temperature;BME280_humidity;BME280_pressure;Samples;Min_cycle;Max_cycle;Signal;HPM_P1;HPM_P2
2023/06/04 00:00:49;;;;;;;;;;;;;;;21.09;54.49;99299.44;4984608;28;20020;-37
2023/06/04 00:03:15;;;;;;;;;;;;;;;20.51;58.03;99323.59;4981546;28;19933;-37
2023/06/04 00:05:40;;;;;;;;;;;;;;;21.71;59.62;99314.28;4984212;28;19921;-37
2023/06/04 00:08:05;;;;;;;;;;;;;;;20.16;61.96;99335.47;4983102;28;19968;-37
2023/06/04 00:10:32;;;;;;;;;;;;;;;20.27;62.49;99332.13;4985126;28;19921;-37
2023/06/04 00:12:57;;;;;;;;;;;;;;;21.96;61.42;99299.31;4985496;28;19936;-37
2023/06/04 00:15:22;;;;;;;;;;;;;;;22.70;55.51;99272.78;4981920;28;19918;-39
2023/06/04 00:17:47;;;;;;;;;;;;;;;21.82;57.89;99296.91;4981466;28;19932;-37
2023/06/04 00:20:13;;;;;;;;;;;;;;;22.54;57.50;99289.72;4984635;28;19921;-37
2023/06/04 00:22:41;;;;;;;;;;;;;;;21.99;55.29;99272.91;4983945;28;19970;-37
2023/06/04 00:25:06;;;;;;;;;;;;;;;22.40;56.11;99287.31;4982532;28;20302;-37
2023/06/04 00:27:32;;;;;;;;;;;;;;;22.34;57.74;99288.59;4984426;28;19928;-37
2023/06/04 00:29:57;;;;;;;;;;;;;;;21.88;54.73;99275.47;4981662;28;19933;-37
2023/06/04 00:32:22;;;;;;;;;;;;;;;22.04;58.36;99286.50;4984964;28;19940;-37
2023/06/04 00:34:51;;;;;;;;;;;;;;;22.75;52.39;99252.25;4985005;28;19925;-38
2023/06/04 00:37:16;;;;;;;;;;;;;;;22.98;51.94;99246.00;4984295;28;20456;-38
2023/06/04 00:39:41;;;;;;;;;;;;;;;22.92;50.50;99241.25;4983317;28;19922;-38
2023/06/04 00:42:07;;;;;;;;;;;;;;;22.62;57.26;99285.66;4986533;28;19926;-38
2023/06/04 00:44:33;;;;;;;;;;;;;;;21.84;53.27;99269.63;4983398;28;20366;-38
2023/06/04 00:46:58;;;;;;;;;;;;;;;22.51;51.70;99252.34;4985301;28;20367;-38
2023/06/04 00:49:23;;;;;;;;;;;;;;;22.78;52.32;99265.13;4984691;28;19929;-38
2023/06/04 00:51:49;;;;;;;;;;;;;;;22.96;52.57;99247.91;4983703;28;19921;-38
2023/06/04 00:54:15;;;;;;;;;;;;;;;22.45;50.84;99253.69;4985503;28;20335;-38
2023/06/04 00:56:41;;;;;;;;;;;;;;;22.65;52.05;99253.91;4988757;28;19917;-38
2023/06/04 00:59:07;;;;;;;;;;;;;;;22.72;51.49;99244.63;4986527;28;20934;-38
2023/06/04 01:01:32;;;;;;;;;;;;;;;22.57;53.76;99266.81;4986640;28;19936;-38
2023/06/04 01:03:57;;;;;;;;;;;;;;;22.76;50.78;99253.91;4983301;28;19979;-38
2023/06/04 01:06:28;;;;;;;;;;;;;;;22.50;52.64;99269.06;4990479;28;20003;-38
2023/06/04 01:08:54;;;;;;;;;;;;;;;22.45;54.44;99277.28;4986681;28;19917;-38
2023/06/04 01:11:30;;;;;;;;;;;;;;;22.44;52.59;99265.16;4984133;28;19922;-38
2023/06/04 01:13:55;;;;;;;;;;;;;;;22.28;53.48;99280.38;4986820;28;19922;-38
2023/06/04 01:16:20;;;;;;;;;;;;;;;22.51;53.26;99262.84;4991937;28;20348;-38
2023/06/04 01:18:47;;;;;;;;;;;;;;;22.33;53.69;99273.81;4987120;28;20039;-38
2023/06/04 01:21:12;;;;;;;;;;;;;;;22.16;53.93;99276.84;4991032;28;19952;-38
2023/06/04 01:23:38;;;;;;;;;;;;;;;22.03;56.34;99289.22;4980448;28;20423;-38
2023/06/04 01:26:04;;;;;;;;;;;;;;;21.86;59.12;99309.66;4986747;28;20386;-38
2023/06/04 01:28:33;;;;;;;;;;;;;;;21.97;57.71;99285.28;4982333;28;19953;-38
2023/06/04 01:30:59;;;;;;;;;;;;;;;21.92;57.67;99287.41;4985631;28;19917;-38
2023/06/04 01:33:24;;;;;;;;;;;;;;;21.92;58.02;99287.41;4983732;28;19948;-38
2023/06/04 01:35:50;;;;;;;;;;;;;;;21.53;57.08;99289.41;4985837;28;19968;-38
2023/06/04 01:38:15;;;;;;;;;;;;;;;22.00;55.60;99271.94;4983316;28;19914;-38
2023/06/04 01:40:40;;;;;;;;;;;;;;;22.06;54.38;99262.78;4985062;28;20291;-38
2023/06/04 01:43:06;;;;;;;;;;;;;;;22.18;54.21;99266.25;4985198;28;19921;-38
2023/06/04 01:45:31;;;;;;;;;;;;;;;22.02;56.79;99285.75;4990193;28;20046;-38
2023/06/04 01:47:56;;;;;;;;;;;;;;;21.96;56.39;99278.34;4986320;28;20012;-38
2023/06/04 01:50:22;;;;;;;;;;;;;;;21.83;55.95;99277.63;4988781;28;19918;-38
2023/06/04 01:52:47;;;;;;;;;;;;;;;21.68;56.97;99290.06;4987633;28;19918;-38
2023/06/04 01:55:14;;;;;;;;;;;;;;;21.67;59.23;99304.13;4987648;28;19917;-38
2023/06/04 01:57:40;;;;;;;;;;;;;;;21.75;57.08;99299.13;4985176;28;19918;-38
2023/06/04 02:00:10;;;;;;;;;;;;;;;21.47;60.78;99316.88;4983765;28;20402;-38
2023/06/04 02:02:36;;;;;;;;;;;;;;;21.62;57.39;99291.34;4991164;28;19932;-38
2023/06/04 02:05:02;;;;;;;;;;;;;;;21.44;59.23;99301.38;4990457;28;20386;-38
2023/06/04 02:07:27;;;;;;;;;;;;;;;21.34;62.62;99323.06;4982455;28;19936;-38
2023/06/04 02:09:52;;;;;;;;;;;;;;;21.38;61.82;99311.44;4985536;28;19917;-38
2023/06/04 02:12:17;;;;;;;;;;;;;;;20.97;64.07;99325.69;4983304;28;19925;-38
2023/06/04 02:14:44;;;;;;;;;;;;;;;21.23;62.32;99306.34;4984323;28;19917;-38
2023/06/04 02:17:12;;;;;;;;;;;;;;;21.24;63.05;99320.28;4980529;28;20012;-38
2023/06/04 02:19:39;;;;;;;;;;;;;;;21.22;60.77;99301.22;4980851;28;20255;-38
2023/06/04 02:22:04;;;;;;;;;;;;;;;21.33;60.52;99292.59;4986351;28;19925;-38
2023/06/04 02:24:30;;;;;;;;;;;;;;;21.21;60.15;99296.91;4983564;28;19918;-38
2023/06/04 02:26:55;;;;;;;;;;;;;;;21.20;61.33;99306.56;4986417;28;19918;-38
2023/06/04 02:29:20;;;;;;;;;;;;;;;20.92;62.47;99309.47;4983857;28;19921;-38
2023/06/04 02:31:45;;;;;;;;;;;;;;;21.03;62.00;99309.53;4987966;28;19922;-38
2023/06/04 02:34:10;;;;;;;;;;;;;;;20.95;61.17;99306.63;4985673;28;19987;-38
2023/06/04 02:36:36;;;;;;;;;;;;;;;21.07;61.23;99305.75;4981519;28;20019;-38
2023/06/04 02:39:01;;;;;;;;;;;;;;;20.63;61.42;99309.69;5000749;28;19921;-38
2023/06/04 02:41:26;;;;;;;;;;;;;;;20.80;62.20;99314.59;4987580;28;19925;-38
2023/06/04 02:43:52;;;;;;;;;;;;;;;20.42;62.74;99315.41;4989343;28;19918;-38
2023/06/04 02:46:17;;;;;;;;;;;;;;;20.32;64.61;99321.34;4989325;28;19914;-38
2023/06/04 02:48:42;;;;;;;;;;;;;;;20.24;65.37;99333.16;4989559;28;20001;-38
2023/06/04 02:51:10;;;;;;;;;;;;;;;19.69;70.16;99362.09;4984934;28;20060;-38
2023/06/04 02:53:35;;;;;;;;;;;;;;;19.68;71.59;99355.13;4986848;28;19921;-38
2023/06/04 02:56:00;;;;;;;;;;;;;;;19.20;76.04;99371.19;4989537;28;19925;-38
2023/06/04 02:58:25;;;;;;;;;;;;;;;18.97;77.05;99369.97;4986806;28;19944;-38
2023/06/04 03:00:54;;;;;;;;;;;;;;;18.77;79.01;99379.88;4990215;28;19922;-38
2023/06/04 03:03:19;;;;;;;;;;;;;;;18.80;79.26;99368.41;4988189;28;19936;-38
2023/06/04 03:05:46;;;;;;;;;;;;;;;18.71;79.62;99364.53;4991948;28;20387;-38
2023/06/04 03:08:11;;;;;;;;;;;;;;;18.84;80.22;99358.59;4989964;28;20654;-38
2023/06/04 03:10:36;;;;;;;;;;;;;;;18.77;80.24;99364.22;4984510;28;19918;-38
2023/06/04 03:13:02;;;;;;;;;;;;;;;18.24;82.68;99375.13;4993979;28;19991;-38
2023/06/04 03:15:27;;;;;;;;;;;;;;;18.15;83.61;99382.59;4987808;28;19920;-38
2023/06/04 03:17:52;;;;;;;;;;;;;;;18.52;83.51;99375.22;4987019;28;20016;-38
2023/06/04 03:20:18;;;;;;;;;;;;;;;18.64;82.53;99365.84;4986296;28;20021;-38
2023/06/04 03:22:43;;;;;;;;;;;;;;;18.60;82.56;99359.94;4996721;28;20039;-38
2023/06/04 03:25:08;;;;;;;;;;;;;;;18.56;83.65;99365.44;4985764;28;20008;-38
2023/06/04 03:27:34;;;;;;;;;;;;;;;18.87;81.40;99332.34;4991451;28;20036;-38
2023/06/04 03:29:59;;;;;;;;;;;;;;;18.14;82.90;99357.44;4985092;28;19945;-38
2023/06/04 03:32:25;;;;;;;;;;;;;;;17.89;86.74;99386.63;4992701;28;20189;-38
2023/06/04 03:34:50;;;;;;;;;;;;;;;18.04;86.15;99377.13;4989186;28;20302;-38
2023/06/04 03:37:16;;;;;;;;;;;;;;;18.85;83.99;99349.84;4991939;28;19913;-38
2023/06/04 03:39:41;;;;;;;;;;;;;;;18.50;83.45;99358.81;4995233;28;20116;-38
2023/06/04 03:42:07;;;;;;;;;;;;;;;17.96;86.00;99385.38;4997328;28;19936;-38
2023/06/04 03:44:32;;;;;;;;;;;;;;;18.60;84.99;99364.34;4983346;28;19922;-38
2023/06/04 03:46:57;;;;;;;;;;;;;;;18.41;82.92;99355.94;4999621;28;20438;-38
2023/06/04 03:49:22;;;;;;;;;;;;;;;18.49;83.76;99364.97;4986217;28;19925;-38
2023/06/04 03:51:48;;;;;;;;;;;;;;;18.14;84.05;99364.41;4988918;28;19917;-38
2023/06/04 03:54:16;;;;;;;;;;;;;;;18.10;84.95;99371.56;4992210;28;19922;-38
2023/06/04 03:56:42;;;;;;;;;;;;;;;18.48;83.68;99357.25;4992327;28;19921;-38
2023/06/04 03:59:07;;;;;;;;;;;;;;;18.29;84.55;99366.13;4987226;28;20386;-38
2023/06/04 04:01:33;;;;;;;;;;;;;;;18.55;83.00;99345.50;4985083;28;19925;-38
2023/06/04 04:03:58;;;;;;;;;;;;;;;18.51;84.07;99351.84;4988710;28;20290;-38
2023/06/04 04:06:23;;;;;;;;;;;;;;;18.50;84.46;99350.16;4992111;28;19918;-38
2023/06/04 04:08:48;;;;;;;;;;;;;;;18.85;83.71;99345.47;4988077;28;19921;-38
2023/06/04 04:11:14;;;;;;;;;;;;;;;18.59;82.13;99344.41;4984186;28;19918;-38
2023/06/04 04:13:39;;;;;;;;;;;;;;;18.70;83.73;99357.66;4988489;28;19922;-38
2023/06/04 04:16:05;;;;;;;;;;;;;;;19.18;83.96;99355.63;4987459;28;19928;-38
2023/06/04 04:18:33;;;;;;;;;;;;;;;19.21;83.01;99344.97;4988390;28;19924;-38
2023/06/04 04:20:58;;;;;;;;;;;;;;;18.85;85.22;99371.56;4988607;28;19920;-38
2023/06/04 04:23:24;;;;;;;;;;;;;;;19.04;83.50;99347.78;4983258;28;19921;-38
2023/06/04 04:25:49;;;;;;;;;;;;;;;19.09;84.94;99356.19;4991294;28;19931;-38
2023/06/04 04:28:17;;;;;;;;;;;;;;;19.71;82.82;99329.69;4985083;28;19925;-38
2023/06/04 04:30:42;;;;;;;;;;;;;;;20.27;78.64;99305.97;4990143;28;19928;-38
2023/06/04 04:33:07;;;;;;;;;;;;;;;20.33;76.54;99302.13;4984818;28;19918;-38
2023/06/04 04:35:34;;;;;;;;;;;;;;;19.81;79.89;99330.75;4986986;28;19918;-38
2023/06/04 04:38:03;;;;;;;;;;;;;;;19.71;80.35;99331.47;4990200;28;19913;-38
2023/06/04 04:40:28;;;;;;;;;;;;;;;20.41;79.65;99323.34;4990548;28;19932;-38
2023/06/04 04:42:53;;;;;;;;;;;;;;;20.93;75.90;99292.78;4986653;28;19921;-38
2023/06/04 04:45:18;;;;;;;;;;;;;;;20.87;75.97;99305.38;4984454;28;19972;-38
2023/06/04 04:47:44;;;;;;;;;;;;;;;21.47;73.45;99288.06;4987709;28;19992;-38
2023/06/04 04:50:09;;;;;;;;;;;;;;;21.82;71.02;99275.94;4986345;28;19924;-38
2023/06/04 04:52:35;;;;;;;;;;;;;;;22.09;69.58;99266.00;4994563;28;20012;-38
2023/06/04 04:55:00;;;;;;;;;;;;;;;22.27;69.31;99276.91;4987675;28;19922;-38
2023/06/04 04:57:25;;;;;;;;;;;;;;;22.34;69.21;99277.28;4983418;28;19921;-38
2023/06/04 04:59:50;;;;;;;;;;;;;;;22.50;69.50;99277.78;4989837;28;19924;-38
2023/06/04 05:02:16;;;;;;;;;;;;;;;22.59;69.15;99285.91;4990337;28;19926;-38
2023/06/04 05:04:41;;;;;;;;;;;;;;;22.88;68.40;99281.84;4988465;28;20152;-38
2023/06/04 05:07:06;;;;;;;;;;;;;;;22.79;68.82;99287.81;4990532;28;19928;-38
2023/06/04 05:09:31;;;;;;;;;;;;;;;23.04;67.02;99273.63;4985552;28;19944;-38
2023/06/04 05:11:57;;;;;;;;;;;;;;;23.07;66.55;99273.38;4984076;28;19926;-38
2023/06/04 05:14:22;;;;;;;;;;;;;;;23.30;66.08;99275.94;4988994;28;19932;-38
2023/06/04 05:16:48;;;;;;;;;;;;;;;23.39;65.17;99270.78;4985610;28;19917;-38
2023/06/04 05:19:15;;;;;;;;;;;;;;;23.59;63.90;99263.91;4995672;28;20032;-38
2023/06/04 05:21:41;;;;;;;;;;;;;;;23.77;63.47;99266.03;4985914;28;20012;-38
2023/06/04 05:24:06;;;;;;;;;;;;;;;23.56;63.77;99276.44;4981343;28;20034;-38
2023/06/04 05:26:32;;;;;;;;;;;;;;;24.06;59.59;99247.78;4988232;28;19924;-38
2023/06/04 05:28:58;;;;;;;;;;;;;;;23.44;63.91;99285.34;4985775;28;19917;-38
2023/06/04 05:31:26;;;;;;;;;;;;;;;23.14;63.57;99287.69;4988233;28;19976;-38
2023/06/04 05:33:52;;;;;;;;;;;;;;;22.42;64.76;99306.41;4987342;28;20628;-38
2023/06/04 05:36:17;;;;;;;;;;;;;;;22.66;65.35;99302.84;4982650;28;19921;-38
2023/06/04 05:38:42;;;;;;;;;;;;;;;23.03;64.64;99298.19;4995840;28;20020;-38
2023/06/04 05:41:07;;;;;;;;;;;;;;;23.70;61.98;99277.97;4985420;28;19972;-38
2023/06/04 05:43:32;;;;;;;;;;;;;;;24.28;60.25;99259.97;4982970;28;19925;-38
2023/06/04 05:45:58;;;;;;;;;;;;;;;23.83;59.76;99267.31;4983363;28;19924;-38
2023/06/04 05:48:23;;;;;;;;;;;;;;;24.37;61.01;99277.63;4986854;28;19953;-38
2023/06/04 05:50:48;;;;;;;;;;;;;;;24.62;60.40;99265.84;4984921;28;20198;-38
2023/06/04 05:53:13;;;;;;;;;;;;;;;24.38;57.09;99267.91;4989311;28;19918;-38
2023/06/04 05:55:39;;;;;;;;;;;;;;;24.13;54.91;99259.50;4989919;28;19969;-38
2023/06/04 05:58:04;;;;;;;;;;;;;;;22.77;59.25;99300.22;4984605;28;20521;-38
2023/06/04 06:00:29;;;;;;;;;;;;;;;22.35;61.87;99315.69;4986081;28;20488;-38
2023/06/04 06:02:54;;;;;;;;;;;;;;;23.12;64.10;99315.84;4987287;28;19921;-38
2023/06/04 06:05:20;;;;;;;;;;;;;;;24.15;61.74;99294.41;4988270;28;19944;-38
2023/06/04 06:07:45;;;;;;;;;;;;;;;23.07;62.46;99311.94;4984758;28;20017;-38
2023/06/04 06:10:10;;;;;;;;;;;;;;;22.42;65.74;99337.91;4983531;28;20374;-38
2023/06/04 06:12:36;;;;;;;;;;;;;;;22.04;66.68;99344.19;4993695;28;19917;-38
2023/06/04 06:15:01;;;;;;;;;;;;;;;22.14;67.23;99341.72;4984660;28;19933;-38
2023/06/04 06:17:26;;;;;;;;;;;;;;;22.03;68.55;99350.41;4986084;28;20401;-38
2023/06/04 06:19:55;;;;;;;;;;;;;;;23.99;61.65;99283.47;4987509;28;19914;-38
2023/06/04 06:22:20;;;;;;;;;;;;;;;22.82;62.78;99319.06;4986198;28;19948;-38
2023/06/04 06:24:48;;;;;;;;;;;;;;;22.93;61.13;99302.50;4989588;28;20391;-38
2023/06/04 06:27:13;;;;;;;;;;;;;;;23.85;62.29;99307.47;4987910;28;20311;-38
2023/06/04 06:29:39;;;;;;;;;;;;;;;23.14;56.59;99292.09;4984062;28;19980;-38
2023/06/04 06:32:04;;;;;;;;;;;;;;;24.30;55.77;99273.03;4986959;28;20011;-39
2023/06/04 06:34:30;;;;;;;;;;;;;;;25.60;51.89;99256.38;4988555;28;19944;-38
2023/06/04 06:36:55;;;;;;;;;;;;;;;24.21;53.45;99291.25;4986629;28;20561;-38
2023/06/04 06:39:20;;;;;;;;;;;;;;;23.15;61.82;99341.91;4988090;28;19918;-38
2023/06/04 06:41:45;;;;;;;;;;;;;;;23.52;61.56;99332.91;4984125;28;20008;-38
2023/06/04 06:44:11;;;;;;;;;;;;;;;22.91;57.91;99313.09;4986969;28;20042;-38
2023/06/04 06:46:36;;;;;;;;;;;;;;;22.04;61.49;99354.69;4988211;28;19984;-38
2023/06/04 06:49:01;;;;;;;;;;;;;;;20.66;61.67;99369.66;4987119;28;20059;-38
2023/06/04 06:51:26;;;;;;;;;;;;;;;21.77;63.09;99356.72;4984542;28;19949;-38
2023/06/04 06:53:51;;;;;;;;;;;;;;;21.63;67.53;99387.38;4979783;28;19925;-38
2023/06/04 06:56:17;;;;;;;;;;;;;;;24.17;57.94;99307.41;4983838;28;19929;-38
2023/06/04 06:58:43;;;;;;;;;;;;;;;23.91;56.65;99307.78;4982774;28;19918;-38
2023/06/04 07:01:08;;;;;;;;;;;;;;;24.31;60.77;99345.75;4987672;28;19960;-38
2023/06/04 07:03:33;;;;;;;;;;;;;;;22.73;63.99;99375.75;4982298;28;19976;-39
2023/06/04 07:05:58;;;;;;;;;;;;;;;25.11;53.70;99318.75;4988185;28;19921;-38
2023/06/04 07:08:24;;;;;;;;;;;;;;;24.26;55.12;99321.59;4986384;28;20060;-38
2023/06/04 07:10:49;;;;;;;;;;;;;;;24.96;53.42;99310.34;4985767;28;20375;-40
2023/06/04 07:13:15;;;;;;;;;;;;;;;25.61;51.93;99299.41;4984443;28;20413;-38
2023/06/04 07:15:40;;;;;;;;;;;;;;;24.99;54.29;99320.63;4983587;28;19922;-37
2023/06/04 07:18:06;;;;;;;;;;;;;;;25.24;52.56;99314.06;4981154;28;20450;-38
2023/06/04 07:20:31;;;;;;;;;;;;;;;24.33;53.75;99328.03;4987516;28;19960;-37
2023/06/04 07:22:56;;;;;;;;;;;;;;;23.33;55.72;99347.50;4987139;28;20782;-38
2023/06/04 07:25:23;;;;;;;;;;;;;;;22.40;52.45;99334.56;4990166;28;19928;-37
2023/06/04 07:27:50;;;;;;;;;;;;;;;23.00;49.22;99301.06;4995021;28;19924;-38
2023/06/04 07:30:15;;;;;;;;;;;;;;;22.67;49.28;99310.63;4993168;28;19984;-37
2023/06/04 07:32:40;;;;;;;;;;;;;;;22.11;53.64;99348.03;4989061;28;19972;-39
2023/06/04 07:35:06;;;;;;;;;;;;;;;23.17;52.71;99328.63;4992685;28;19917;-39
2023/06/04 07:37:31;;;;;;;;;;;;;;;23.50;53.02;99329.56;4986319;28;19973;-39
2023/06/04 07:39:56;;;;;;;;;;;;;;;24.05;51.56;99304.03;4991649;28;19921;-39
2023/06/04 07:42:22;;;;;;;;;;;;;;;24.62;52.74;99313.25;4992294;28;20188;-39
2023/06/04 07:44:47;;;;;;;;;;;;;;;24.72;53.24;99323.00;4984009;28;19929;-39
2023/06/04 07:47:12;;;;;;;;;;;;;;;23.79;54.19;99341.19;4992364;28;19917;-40
2023/06/04 07:49:37;;;;;;;;;;;;;;;24.11;52.93;99326.38;4989188;28;19933;-39
2023/06/04 07:52:03;;;;;;;;;;;;;;;23.82;57.85;99350.63;4989882;28;19917;-39
2023/06/04 07:54:28;;;;;;;;;;;;;;;24.62;61.03;99357.19;4991071;28;19928;-40
2023/06/04 07:56:55;;;;;;;;;;;;;;;24.85;53.43;99318.34;4987698;28;20036;-39
2023/06/04 07:59:21;;;;;;;;;;;;;;;23.52;53.13;99333.72;4989607;28;20008;-39
2023/06/04 08:01:47;;;;;;;;;;;;;;;23.24;56.16;99353.50;4986752;28;19925;-39
2023/06/04 08:04:12;;;;;;;;;;;;;;;24.38;51.14;99310.03;4985858;28;20395;-39
2023/06/04 08:06:39;;;;;;;;;;;;;;;25.18;49.04;99297.91;4996519;28;20729;-39
2023/06/04 08:09:04;;;;;;;;;;;;;;;25.92;51.63;99312.50;4991530;28;19918;-38
2023/06/04 08:11:30;;;;;;;;;;;;;;;23.89;49.72;99314.97;4989847;28;19925;-39
2023/06/04 08:13:55;;;;;;;;;;;;;;;23.14;51.50;99326.25;4991455;28;19922;-39
2023/06/04 08:16:20;;;;;;;;;;;;;;;23.07;50.52;99335.59;4990246;28;19944;-38
2023/06/04 08:18:45;;;;;;;;;;;;;;;23.54;52.51;99331.81;4988042;28;19924;-39
2023/06/04 08:21:11;;;;;;;;;;;;;;;26.13;49.66;99307.06;4990480;28;19917;-39
2023/06/04 08:23:36;;;;;;;;;;;;;;;25.62;48.20;99309.00;4986076;28;19918;-39
2023/06/04 08:26:01;;;;;;;;;;;;;;;27.06;45.60;99285.09;4990271;28;19926;-39
2023/06/04 08:28:26;;;;;;;;;;;;;;;24.86;47.55;99320.03;4984940;28;20644;-39
2023/06/04 08:30:52;;;;;;;;;;;;;;;25.54;47.80;99319.41;4985460;28;19921;-39
2023/06/04 08:33:17;;;;;;;;;;;;;;;27.08;50.26;99312.22;4988510;28;19944;-39
2023/06/04 08:35:42;;;;;;;;;;;;;;;26.51;45.46;99290.31;4993411;28;19921;-39
2023/06/04 08:38:07;;;;;;;;;;;;;;;28.22;47.54;99306.38;4988422;28;19921;-39
2023/06/04 08:40:34;;;;;;;;;;;;;;;26.77;48.67;99337.25;4996095;28;20004;-39
2023/06/04 08:42:59;;;;;;;;;;;;;;;25.41;49.87;99340.75;4987643;28;19922;-39
2023/06/04 08:45:28;;;;;;;;;;;;;;;27.37;51.11;99327.13;4985402;28;19926;-39
2023/06/04 08:47:53;;;;;;;;;;;;;;;29.24;45.10;99280.06;4995271;28;19917;-39
2023/06/04 08:50:20;;;;;;;;;;;;;;;27.23;42.73;99293.22;4988528;28;20042;-39
2023/06/04 08:52:45;;;;;;;;;;;;;;;24.67;47.90;99349.72;4989323;28;20397;-39
2023/06/04 08:55:11;;;;;;;;;;;;;;;24.21;50.84;99367.56;4983806;28;19918;-39
2023/06/04 08:57:37;;;;;;;;;;;;;;;25.77;53.18;99356.91;4980113;28;19949;-39
2023/06/04 09:00:05;;;;;;;;;;;;;;;25.69;49.57;99338.31;4990494;28;19972;-39
2023/06/04 09:02:30;;;;;;;;;;;;;;;28.17;47.04;99298.09;4982933;28;20008;-39
2023/06/04 09:04:56;;;;;;;;;;;;;;;27.85;47.06;99302.13;4990299;28;20008;-39
2023/06/04 09:07:22;;;;;;;;;;;;;;;28.67;44.50;99300.06;4982014;28;19925;-39
2023/06/04 09:09:47;;;;;;;;;;;;;;;27.54;49.94;99334.22;4986000;28;19940;-39
2023/06/04 09:12:15;;;;;;;;;;;;;;;25.19;46.42;99336.53;4988083;28;19917;-40
2023/06/04 09:14:41;;;;;;;;;;;;;;;26.32;47.67;99329.97;4995185;28;19918;-39
2023/06/04 09:17:06;;;;;;;;;;;;;;;27.91;47.88;99319.22;4988182;28;19921;-39
2023/06/04 09:19:31;;;;;;;;;;;;;;;26.35;46.36;99329.69;4990722;28;19921;-39
2023/06/04 09:21:57;;;;;;;;;;;;;;;25.95;46.89;99325.41;4987553;28;20816;-39
2023/06/04 09:24:23;;;;;;;;;;;;;;;25.69;47.53;99344.41;4985645;28;19922;-39
2023/06/04 09:26:49;;;;;;;;;;;;;;;26.33;41.93;99297.31;4985235;28;19925;-39
2023/06/04 09:29:15;;;;;;;;;;;;;;;28.78;42.90;99291.84;4988730;28;19917;-39
2023/06/04 09:31:40;;;;;;;;;;;;;;;26.87;41.77;99304.53;4981269;28;20392;-39
2023/06/04 09:34:06;;;;;;;;;;;;;;;25.19;43.15;99326.00;4989675;28;19922;-39
2023/06/04 09:36:31;;;;;;;;;;;;;;;27.40;42.47;99304.81;4982606;28;20325;-38
2023/06/04 09:38:56;;;;;;;;;;;;;;;26.50;43.48;99323.81;4993751;28;20284;-37
2023/06/04 09:41:22;;;;;;;;;;;;;;;28.39;39.60;99275.53;4981867;28;19926;-37
2023/06/04 09:43:47;;;;;;;;;;;;;;;26.31;42.83;99317.75;4986274;28;19920;-37
2023/06/04 09:46:13;;;;;;;;;;;;;;;26.80;41.70;99302.59;4983882;28;19921;-37
2023/06/04 09:48:39;;;;;;;;;;;;;;;29.93;43.08;99289.47;4983363;28;19922;-37
2023/06/04 09:51:08;;;;;;;;;;;;;;;29.39;39.26;99275.81;4984480;28;19947;-38
2023/06/04 09:53:33;;;;;;;;;;;;;;;27.01;42.21;99310.31;4980131;28;19968;-38
2023/06/04 09:55:58;;;;;;;;;;;;;;;27.93;40.89;99286.31;4983558;28;19917;-37
2023/06/04 09:58:30;;;;;;;;;;;;;;;27.38;41.62;99298.84;4981506;28;19932;-37
2023/06/04 10:00:56;;;;;;;;;;;;;;;26.24;41.22;99310.38;4991492;28;19921;-37
2023/06/04 10:03:23;;;;;;;;;;;;;;;25.78;42.77;99327.75;4988944;28;19929;-37
2023/06/04 10:05:48;;;;;;;;;;;;;;;28.99;40.45;99269.38;4987385;28;19917;-38
2023/06/04 10:08:13;;;;;;;;;;;;;;;28.74;38.83;99274.59;4987699;28;20026;-39
2023/06/04 10:10:39;;;;;;;;;;;;;;;27.93;38.43;99270.41;4979498;28;19975;-39
2023/06/04 10:13:10;;;;;;;;;;;;;;;28.70;40.62;99289.16;4987814;28;19969;-39
2023/06/04 10:15:35;;;;;;;;;;;;;;;26.80;42.30;99324.59;4987672;28;19918;-38
2023/06/04 10:18:01;;;;;;;;;;;;;;;28.71;41.26;99282.84;4982786;28;19940;-39
2023/06/04 10:20:26;;;;;;;;;;;;;;;28.49;41.61;99299.31;4983102;28;20133;-39
2023/06/04 10:22:51;;;;;;;;;;;;;;;27.46;41.33;99299.78;4987362;28;19930;-38
2023/06/04 10:25:17;;;;;;;;;;;;;;;28.87;42.67;99303.28;4984795;28;19918;-39
2023/06/04 10:27:42;;;;;;;;;;;;;;;31.94;37.77;99254.53;4971270;28;19918;-38
2023/06/04 10:30:08;;;;;;;;;;;;;;;27.64;39.47;99293.63;4988057;28;20001;-39
2023/06/04 10:32:33;;;;;;;;;;;;;;;29.61;41.66;99292.94;4983830;28;19968;-39
2023/06/04 10:34:58;;;;;;;;;;;;;;;28.26;38.55;99281.25;4983627;28;19918;-39
2023/06/04 10:37:24;;;;;;;;;;;;;;;28.80;43.66;99320.00;4984405;28;19964;-38
2023/06/04 10:39:50;;;;;;;;;;;;;;;29.07;41.11;99289.78;4980888;28;19925;-38
2023/06/04 10:42:18;;;;;;;;;;;;;;;28.54;41.00;99292.53;4988074;28;19922;-39
2023/06/04 10:44:47;;;;;;;;;;;;;;;31.07;40.57;99284.91;4980011;28;19921;-38
2023/06/04 10:47:19;;;;;;;;;;;;;;;27.58;43.34;99333.94;4993773;28;19921;-39
2023/06/04 10:49:45;;;;;;;;;;;;;;;28.20;40.19;99286.34;4988055;28;19918;-39
2023/06/04 10:52:10;;;;;;;;;;;;;;;29.02;39.40;99277.00;4988581;28;19918;-39
2023/06/04 10:54:35;;;;;;;;;;;;;;;27.66;39.41;99286.38;4985739;28;20013;-38
2023/06/04 10:57:09;;;;;;;;;;;;;;;30.42;37.81;99243.44;4984060;28;19961;-39
2023/06/04 10:59:35;;;;;;;;;;;;;;;29.38;37.39;99260.88;4988836;28;19936;-38
2023/06/04 11:02:06;;;;;;;;;;;;;;;31.54;37.39;99254.69;4990105;28;20463;-39
2023/06/04 11:04:32;;;;;;;;;;;;;;;29.89;37.75;99268.72;4989138;28;19926;-39
2023/06/04 11:07:15;;;;;;;;;;;;;;;28.71;35.40;99264.28;4985030;28;19940;-39
2023/06/04 11:09:50;;;;;;;;;;;;;;;28.20;36.25;99273.09;4989412;28;19918;-38
2023/06/04 11:12:15;;;;;;;;;;;;;;;28.07;36.22;99270.84;4987668;28;19918;-38
2023/06/04 11:14:40;;;;;;;;;;;;;;;29.51;35.46;99255.09;4991207;28;19976;-38
2023/06/04 11:17:12;;;;;;;;;;;;;;;28.69;37.69;99270.75;4989018;28;19921;-38
2023/06/04 11:19:38;;;;;;;;;;;;;;;29.14;36.83;99270.44;4988699;28;20007;-38
2023/06/04 11:22:04;;;;;;;;;;;;;;;30.56;32.87;99207.31;4991199;28;19965;-38
2023/06/04 11:24:30;;;;;;;;;;;;;;;30.69;33.67;99234.19;4987735;28;20023;-39
2023/06/04 11:26:59;;;;;;;;;;;;;;;29.36;33.11;99233.69;4990899;28;19917;-39
2023/06/04 11:29:24;;;;;;;;;;;;;;;29.78;33.16;99230.06;4988484;28;19924;-39
2023/06/04 11:31:50;;;;;;;;;;;;;;;28.97;32.52;99239.56;4985421;28;19917;-39
2023/06/04 11:34:28;;;;;;;;;;;;;;;30.23;32.90;99236.66;4989737;28;20158;-39
2023/06/04 11:36:53;;;;;;;;;;;;;;;30.36;32.06;99229.00;4985134;28;19921;-39
2023/06/04 11:39:19;;;;;;;;;;;;;;;30.59;33.01;99222.94;4985563;28;19929;-39
2023/06/04 11:41:44;;;;;;;;;;;;;;;30.52;34.13;99244.06;4993250;28;19975;-39
2023/06/04 11:44:10;;;;;;;;;;;;;;;31.25;32.75;99229.59;4987025;28;19913;-39
2023/06/04 11:46:35;;;;;;;;;;;;;;;30.34;31.39;99212.41;4988523;28;19914;-39
2023/06/04 11:49:01;;;;;;;;;;;;;;;30.92;30.67;99212.16;4993744;28;19932;-39
2023/06/04 11:51:27;;;;;;;;;;;;;;;31.45;34.27;99253.09;4988014;28;20008;-39
2023/06/04 11:53:52;;;;;;;;;;;;;;;31.25;32.21;99237.56;4992119;28;20012;-39
2023/06/04 11:56:17;;;;;;;;;;;;;;;31.60;30.88;99222.03;4988958;28;19918;-39
2023/06/04 11:58:42;;;;;;;;;;;;;;;34.13;30.83;99205.53;4986564;28;19976;-39
2023/06/04 12:01:08;;;;;;;;;;;;;;;31.23;32.28;99241.41;4984272;28;20012;-39
2023/06/04 12:03:37;;;;;;;;;;;;;;;30.85;32.00;99242.13;4987894;28;19929;-39
2023/06/04 12:06:13;;;;;;;;;;;;;;;33.83;31.61;99223.59;4991451;28;20722;-39
2023/06/04 12:09:04;;;;;;;;;;;;;;;31.77;33.75;99253.84;4987176;28;20394;-39
2023/06/04 12:11:33;;;;;;;;;;;;;;;32.25;34.11;99254.41;4992249;28;19925;-39
2023/06/04 12:13:59;;;;;;;;;;;;;;;32.60;31.76;99233.41;4990653;28;19921;-39
2023/06/04 12:16:25;;;;;;;;;;;;;;;31.46;32.80;99246.78;4983950;28;19949;-39
2023/06/04 12:18:50;;;;;;;;;;;;;;;32.87;30.30;99208.69;4981458;28;19922;-39
2023/06/04 12:21:28;;;;;;;;;;;;;;;31.20;30.50;99220.47;4990565;28;19921;-39
2023/06/04 12:23:54;;;;;;;;;;;;;;;34.47;34.28;99266.19;4989749;28;20299;-39
2023/06/04 12:26:28;;;;;;;;;;;;;;;33.11;32.98;99247.56;4985444;28;19926;-39
2023/06/04 12:29:00;;;;;;;;;;;;;;;32.82;29.63;99200.44;4986184;28;19918;-39
2023/06/04 12:31:25;;;;;;;;;;;;;;;31.96;30.93;99226.72;4984644;28;20406;-39
2023/06/04 12:33:50;;;;;;;;;;;;;;;32.56;31.50;99224.09;4989785;28;19964;-39
2023/06/04 12:36:15;;;;;;;;;;;;;;;31.17;32.53;99234.13;4986935;28;20367;-39
2023/06/04 12:38:40;;;;;;;;;;;;;;;32.13;33.41;99243.38;4990099;28;19928;-39
2023/06/04 12:41:06;;;;;;;;;;;;;;;33.99;32.35;99234.00;4990082;28;19918;-39